createdAt,value
2018-02-06T00:00:57.999Z,1015.79
2018-02-06T00:01:58.019Z,1015.85
2018-02-06T00:02:57.998Z,1015.77
2018-02-06T00:03:58.036Z,1015.74
2018-02-06T00:04:58.008Z,1015.72
2018-02-06T00:05:58.041Z,1015.76
2018-02-06T00:06:58.004Z,1015.76
2018-02-06T00:07:58.060Z,1015.66
2018-02-06T00:08:58.019Z,1015.70
2018-02-06T00:09:58.069Z,1015.61
2018-02-06T00:10:58.013Z,1015.62
2018-02-06T00:11:58.084Z,1015.62
2018-02-06T00:12:58.013Z,1015.58
2018-02-06T00:13:58.094Z,1015.57
2018-02-06T00:14:58.014Z,1015.52
2018-02-06T00:15:58.104Z,1015.52
2018-02-06T00:16:58.015Z,1015.50
2018-02-06T00:17:58.115Z,1015.48
2018-02-06T00:18:58.017Z,1015.47
2018-02-06T00:19:58.029Z,1015.44
2018-02-06T00:20:58.018Z,1015.44
2018-02-06T00:21:58.039Z,1015.39
2018-02-06T00:22:58.020Z,1015.34
2018-02-06T00:23:58.052Z,1015.28
2018-02-06T00:24:58.023Z,1015.31
2018-02-06T00:25:58.073Z,1015.25
2018-02-06T00:26:58.025Z,1015.22
2018-02-06T00:27:58.078Z,1015.19
2018-02-06T00:28:58.032Z,1015.18
2018-02-06T00:29:58.091Z,1015.15
2018-02-06T00:30:58.027Z,1015.17
2018-02-06T00:31:58.105Z,1015.11
2018-02-06T00:32:58.037Z,1015.13
2018-02-06T00:33:58.118Z,1015.13
2018-02-06T00:34:58.028Z,1015.12
2018-02-06T00:35:58.132Z,1015.10
2018-02-06T00:36:58.034Z,1015.10
2018-02-06T00:37:58.146Z,1015.07
2018-02-06T00:38:58.036Z,1015.04
2018-02-06T00:39:58.053Z,1015.04
2018-02-06T00:40:58.038Z,1014.99
2018-02-06T00:41:58.072Z,1015.03
2018-02-06T00:42:58.040Z,1014.99
2018-02-06T00:43:58.079Z,1014.98
2018-02-06T00:44:58.040Z,1015.04
2018-02-06T00:45:58.093Z,1015.10
2018-02-06T00:46:58.048Z,1015.02
2018-02-06T00:47:58.108Z,1014.96
2018-02-06T00:48:58.041Z,1014.96
2018-02-06T00:49:58.120Z,1014.97
2018-02-06T00:50:58.043Z,1014.94
2018-02-06T00:51:58.132Z,1014.95
2018-02-06T00:52:58.048Z,1014.91
2018-02-06T00:53:58.145Z,1014.93
2018-02-06T00:54:58.063Z,1014.91
2018-02-06T00:55:58.164Z,1014.90
2018-02-06T00:56:58.052Z,1014.86
2018-02-06T00:57:58.048Z,1014.84
2018-02-06T00:58:58.124Z,1014.82
2018-02-06T00:59:58.058Z,1014.78
2018-02-06T01:00:58.142Z,1014.81
2018-02-06T01:01:58.050Z,1014.78
2018-02-06T01:02:58.156Z,1014.82
2018-02-06T01:03:58.054Z,1014.76
2018-02-06T01:04:58.165Z,1014.75
2018-02-06T01:05:58.056Z,1014.72
2018-02-06T01:06:58.177Z,1014.76
2018-02-06T01:07:58.059Z,1014.71
2018-02-06T01:08:58.191Z,1014.72
2018-02-06T01:09:58.063Z,1014.73
2018-02-06T01:10:58.210Z,1014.67
2018-02-06T01:11:58.059Z,1014.70
2018-02-06T01:12:58.219Z,1014.69
2018-02-06T01:13:58.063Z,1014.67
2018-02-06T01:14:58.229Z,1014.68
2018-02-06T01:15:58.067Z,1014.62
2018-02-06T01:16:58.167Z,1014.60
2018-02-06T01:17:58.065Z,1014.58
2018-02-06T01:18:58.164Z,1014.57
2018-02-06T01:19:58.072Z,1014.60
2018-02-06T01:20:58.180Z,1014.59
2018-02-06T01:21:58.084Z,1014.61
2018-02-06T01:22:58.187Z,1014.56
2018-02-06T01:23:58.088Z,1014.56
2018-02-06T01:24:58.206Z,1014.50
2018-02-06T01:25:58.074Z,1014.49
2018-02-06T01:26:58.214Z,1014.50
2018-02-06T01:27:58.075Z,1014.51
2018-02-06T01:28:58.221Z,1014.51
2018-02-06T01:29:58.076Z,1014.48
2018-02-06T01:30:58.288Z,1014.46
2018-02-06T01:31:58.082Z,1014.46
2018-02-06T01:32:58.251Z,1014.53
2018-02-06T01:33:58.086Z,1014.44
2018-02-06T01:34:58.159Z,1014.40
2018-02-06T01:35:58.082Z,1014.40
2018-02-06T01:36:58.178Z,1014.32
2018-02-06T01:37:58.083Z,1014.27
2018-02-06T01:38:58.192Z,1014.21
2018-02-06T01:39:58.081Z,1014.19
2018-02-06T01:40:58.204Z,1014.13
2018-02-06T01:41:58.083Z,1014.21
2018-02-06T01:42:59.245Z,1014.15
2018-02-06T01:43:58.089Z,1014.11
2018-02-06T01:44:58.237Z,1014.10
2018-02-06T01:45:58.086Z,1014.13
2018-02-06T01:46:58.240Z,1014.10
2018-02-06T01:47:58.090Z,1014.05
2018-02-06T01:48:58.264Z,1014.03
2018-02-06T01:49:58.090Z,1014.03
2018-02-06T01:50:58.270Z,1013.99
2018-02-06T01:51:58.092Z,1014.07
2018-02-06T01:52:58.185Z,1014.02
2018-02-06T01:53:58.093Z,1014.00
2018-02-06T01:54:58.194Z,1014.00
2018-02-06T01:55:58.096Z,1013.97
2018-02-06T01:56:58.210Z,1013.95
2018-02-06T01:57:58.106Z,1013.94
2018-02-06T01:58:58.229Z,1013.90
2018-02-06T01:59:58.093Z,1013.83
2018-02-06T02:00:58.241Z,1013.88
2018-02-06T02:01:58.096Z,1013.83
2018-02-06T02:02:58.253Z,1013.83
2018-02-06T02:03:58.097Z,1013.82
2018-02-06T02:04:58.264Z,1013.88
2018-02-06T02:05:58.097Z,1013.80
2018-02-06T02:06:58.278Z,1013.77
2018-02-06T02:07:58.107Z,1013.73
2018-02-06T02:08:58.192Z,1013.75
2018-02-06T02:09:58.108Z,1013.72
2018-02-06T02:10:58.204Z,1013.74
2018-02-06T02:11:58.101Z,1013.70
2018-02-06T02:12:58.218Z,1013.66
2018-02-06T02:13:58.107Z,1013.64
2018-02-06T02:14:58.226Z,1013.65
2018-02-06T02:15:58.127Z,1013.59
2018-02-06T02:16:58.247Z,1013.58
2018-02-06T02:17:58.107Z,1013.58
2018-02-06T02:18:58.264Z,1013.60
2018-02-06T02:19:58.109Z,1013.54
2018-02-06T02:20:58.270Z,1013.50
2018-02-06T02:21:58.111Z,1013.46
2018-02-06T02:22:58.283Z,1013.52
2018-02-06T02:23:58.165Z,1013.42
2018-02-06T02:24:58.294Z,1013.46
2018-02-06T02:25:58.118Z,1013.46
2018-02-06T02:26:58.208Z,1013.40
2018-02-06T02:27:58.111Z,1013.40
2018-02-06T02:28:58.220Z,1013.41
2018-02-06T02:29:58.112Z,1013.39
2018-02-06T02:30:58.242Z,1013.40
2018-02-06T02:31:58.118Z,1013.37
2018-02-06T02:32:58.247Z,1013.37
2018-02-06T02:33:58.114Z,1013.34
2018-02-06T02:34:58.261Z,1013.43
2018-02-06T02:35:58.119Z,1013.39
2018-02-06T02:36:58.277Z,1013.38
2018-02-06T02:37:58.117Z,1013.37
2018-02-06T02:38:58.291Z,1013.43
2018-02-06T02:39:58.133Z,1013.34
2018-02-06T02:40:58.299Z,1013.30
2018-02-06T04:38:58.183Z,1012.36
2018-02-06T04:39:58.300Z,1012.42
2018-02-06T04:40:58.166Z,1012.38
2018-02-06T04:41:58.309Z,1012.41
2018-02-06T04:42:58.169Z,1012.39
2018-02-06T04:43:58.226Z,1012.40
2018-02-06T04:44:58.169Z,1012.36
2018-02-06T04:45:58.237Z,1012.35
2018-02-06T04:46:58.174Z,1012.33
2018-02-06T04:47:58.253Z,1012.31
2018-02-06T04:48:58.169Z,1012.23
2018-02-06T04:49:58.264Z,1012.28
2018-02-06T04:50:58.168Z,1012.24
2018-02-06T04:51:58.272Z,1012.28
2018-02-06T04:52:58.170Z,1012.21
2018-02-06T04:53:58.292Z,1012.20
2018-02-06T04:54:58.174Z,1012.23
2018-02-06T04:55:58.305Z,1012.22
2018-02-06T04:56:58.169Z,1012.21
2018-02-06T04:57:58.319Z,1012.28
2018-02-06T04:58:58.178Z,1012.24
2018-02-06T04:59:58.226Z,1012.24
2018-02-06T05:00:58.176Z,1012.20
2018-02-06T05:01:58.239Z,1012.16
2018-02-06T05:02:58.175Z,1012.22
2018-02-06T05:03:58.255Z,1012.18
2018-02-06T05:04:58.170Z,1012.15
2018-02-06T05:05:58.269Z,1012.17
2018-02-06T05:06:58.174Z,1012.17
2018-02-06T05:07:58.280Z,1012.13
2018-02-06T05:08:58.176Z,1012.08
2018-02-06T05:09:59.321Z,1012.12
2018-02-06T05:10:58.175Z,1012.08
2018-02-06T05:11:58.308Z,1012.06
2018-02-06T05:12:58.178Z,1012.03
2018-02-06T05:13:58.323Z,1012.06
2018-02-06T05:14:58.202Z,1012.04
2018-02-06T05:15:58.232Z,1012.04
2018-02-06T05:16:58.182Z,1012.01
2018-02-06T05:17:58.244Z,1012.02
2018-02-06T05:18:58.184Z,1012.04
2018-02-06T05:19:58.259Z,1012.07
2018-02-06T05:20:58.179Z,1012.02
2018-02-06T05:21:58.284Z,1012.03
2018-02-06T05:22:58.175Z,1012.06
2018-02-06T05:23:58.284Z,1012.03
2018-02-06T05:24:58.178Z,1012.03
2018-02-06T05:25:58.303Z,1012.05
2018-02-06T05:26:58.181Z,1012.03
2018-02-06T05:27:58.309Z,1012.05
2018-02-06T05:28:58.179Z,1012.00
2018-02-06T05:29:58.324Z,1011.97
2018-02-06T05:30:58.182Z,1011.99
2018-02-06T05:31:58.440Z,1012.00
2018-02-06T05:32:58.180Z,1011.94
2018-02-06T05:33:58.252Z,1011.94
2018-02-06T05:34:58.191Z,1011.90
2018-02-06T05:35:58.268Z,1011.84
2018-02-06T05:36:58.180Z,1011.92
2018-02-06T05:37:59.306Z,1011.86
2018-02-06T05:38:58.184Z,1011.85
2018-02-06T05:39:58.297Z,1011.87
2018-02-06T05:40:58.178Z,1011.89
2018-02-06T05:41:58.305Z,1011.85
2018-02-06T05:42:58.183Z,1011.86
2018-02-06T05:43:58.319Z,1011.87
2018-02-06T05:44:58.181Z,1011.79
2018-02-06T05:45:58.336Z,1011.74
2018-02-06T05:46:58.180Z,1011.76
2018-02-06T05:47:58.348Z,1011.68
2018-02-06T05:48:58.182Z,1011.70
2018-02-06T05:49:58.259Z,1011.66
2018-02-06T05:50:58.229Z,1011.65
2018-02-06T05:51:58.270Z,1011.60
2018-02-06T05:52:58.182Z,1011.55
2018-02-06T05:53:58.295Z,1011.55
2018-02-06T05:54:58.197Z,1011.53
2018-02-06T05:55:58.305Z,1011.52
2018-02-06T05:56:58.181Z,1011.47
2018-02-06T05:57:58.312Z,1011.50
2018-02-06T05:58:58.181Z,1011.46
2018-02-06T05:59:58.332Z,1011.43
2018-02-06T06:00:58.185Z,1011.43
2018-02-06T06:01:58.358Z,1011.48
2018-02-06T06:02:58.179Z,1011.47
2018-02-06T06:03:58.325Z,1011.48
2018-02-06T06:04:58.180Z,1011.44
2018-02-06T06:05:58.238Z,1011.46
2018-02-06T06:06:58.179Z,1011.47
2018-02-06T06:07:58.250Z,1011.43
2018-02-06T06:08:58.187Z,1011.44
2018-02-06T06:09:58.263Z,1011.44
2018-02-06T06:10:58.187Z,1011.47
2018-02-06T06:11:58.279Z,1011.45
2018-02-06T06:12:58.184Z,1011.39
2018-02-06T06:13:58.292Z,1011.37
2018-02-06T06:14:58.191Z,1011.40
2018-02-06T06:15:58.307Z,1011.36
2018-02-06T06:16:58.183Z,1011.38
2018-02-06T06:17:58.315Z,1011.34
2018-02-06T06:18:58.186Z,1011.28
2018-02-06T06:19:58.225Z,1011.28
2018-02-06T06:20:58.187Z,1011.24
2018-02-06T06:21:58.244Z,1011.20
2018-02-06T06:22:58.237Z,1011.18
2018-02-06T06:23:58.259Z,1011.16
2018-02-06T06:24:58.184Z,1011.17
2018-02-06T06:25:58.271Z,1011.17
2018-02-06T06:26:58.182Z,1011.13
2018-02-06T06:27:58.283Z,1011.11
2018-02-06T06:28:58.184Z,1011.11
2018-02-06T06:29:59.247Z,1011.15
2018-02-06T06:30:58.187Z,1011.10
2018-02-06T06:31:58.217Z,1011.07
2018-02-06T06:32:58.184Z,1011.05
2018-02-06T06:33:58.230Z,1011.01
2018-02-06T06:34:58.179Z,1011.04
2018-02-06T06:35:58.235Z,1011.02
2018-02-06T06:36:58.185Z,1011.10
2018-02-06T06:37:58.268Z,1011.05
2018-02-06T06:38:58.187Z,1011.02
2018-02-06T06:39:58.271Z,1011.06
2018-02-06T06:40:58.193Z,1011.07
2018-02-06T06:41:58.284Z,1011.03
2018-02-06T06:42:58.191Z,1011.09
2018-02-06T06:43:58.235Z,1011.07
2018-02-06T06:44:58.260Z,1011.11
2018-02-06T06:45:58.183Z,1011.08
2018-02-06T06:46:58.271Z,1011.06
2018-02-06T06:47:58.196Z,1011.08
2018-02-06T06:48:58.276Z,1011.05
2018-02-06T06:49:58.182Z,1011.04
2018-02-06T06:50:58.298Z,1010.97
2018-02-06T06:51:58.188Z,1010.97
2018-02-06T06:52:58.204Z,1010.95
2018-02-06T06:53:58.184Z,1010.95
2018-02-06T06:54:58.188Z,1010.98
2018-02-06T06:55:58.227Z,1010.95
2018-02-06T06:56:58.186Z,1010.97
2018-02-06T06:57:58.190Z,1010.97
2018-02-06T06:58:58.245Z,1010.96
2018-02-06T06:59:58.188Z,1010.93
2018-02-06T07:00:58.262Z,1010.92
2018-02-06T07:01:58.185Z,1010.93
2018-02-06T07:02:58.272Z,1010.96
2018-02-06T07:03:58.185Z,1010.96
2018-02-06T07:04:58.290Z,1011.00
2018-02-06T07:05:58.192Z,1011.04
2018-02-06T07:06:58.181Z,1010.98
2018-02-06T07:07:58.205Z,1010.99
2018-02-06T07:08:58.179Z,1010.98
2018-02-06T07:09:58.243Z,1010.93
2018-02-06T07:10:58.193Z,1010.96
2018-02-06T07:11:58.184Z,1010.91
2018-02-06T07:12:58.181Z,1010.96
2018-02-06T07:13:58.246Z,1010.92
2018-02-06T07:14:58.220Z,1010.93
2018-02-06T07:15:58.274Z,1010.90
2018-02-06T07:16:58.184Z,1010.87
2018-02-06T07:17:58.279Z,1010.88
2018-02-06T07:18:58.188Z,1010.90
2018-02-06T07:19:59.218Z,1010.87
2018-02-06T07:20:58.183Z,1010.91
2018-02-06T07:21:58.180Z,1010.91
2018-02-06T07:22:58.207Z,1010.90
2018-02-06T07:23:58.179Z,1010.91
2018-02-06T07:24:58.220Z,1010.88
2018-02-06T07:25:58.183Z,1010.87
2018-02-06T07:26:58.241Z,1010.84
2018-02-06T07:27:58.178Z,1010.84
2018-02-06T07:28:58.249Z,1010.86
2018-02-06T07:29:58.188Z,1010.85
2018-02-06T07:30:58.260Z,1010.82
2018-02-06T07:31:58.184Z,1010.82
2018-02-06T07:32:58.273Z,1010.79
2018-02-06T07:33:58.205Z,1010.80
2018-02-06T07:34:58.278Z,1010.76
2018-02-06T07:35:58.189Z,1010.74
2018-02-06T07:36:58.289Z,1010.80
2018-02-06T07:37:58.186Z,1010.76
2018-02-06T07:38:58.246Z,1010.76
2018-02-06T07:39:58.179Z,1010.75
2018-02-06T07:40:58.252Z,1010.74
2018-02-06T07:41:58.182Z,1010.73
2018-02-06T07:42:58.275Z,1010.80
2018-02-06T07:43:58.181Z,1010.74
2018-02-06T07:44:58.278Z,1010.77
2018-02-06T07:45:58.195Z,1010.77
2018-02-06T07:46:58.294Z,1010.78
2018-02-06T07:47:58.192Z,1010.78
2018-02-06T07:48:58.209Z,1010.77
2018-02-06T07:49:58.177Z,1010.73
2018-02-06T07:50:58.300Z,1010.72
2018-02-06T07:51:58.183Z,1010.71
2018-02-06T07:52:58.292Z,1010.71
2018-02-06T07:53:58.180Z,1010.74
2018-02-06T07:54:58.182Z,1010.80
2018-02-06T07:55:58.205Z,1010.75
2018-02-06T07:56:58.183Z,1010.76
2018-02-06T07:57:58.219Z,1010.77
2018-02-06T07:58:58.176Z,1010.81
2018-02-06T07:59:58.235Z,1010.80
2018-02-06T08:00:58.178Z,1010.77
2018-02-06T08:01:58.248Z,1010.74
2018-02-06T08:02:58.189Z,1010.78
2018-02-06T08:03:58.257Z,1010.77
2018-02-06T08:04:58.181Z,1010.77
2018-02-06T08:05:58.278Z,1010.74
2018-02-06T08:06:58.206Z,1010.80
2018-02-06T08:07:58.285Z,1010.70
2018-02-06T08:08:58.177Z,1010.75
2018-02-06T08:09:58.198Z,1010.72
2018-02-06T08:10:58.176Z,1010.72
2018-02-06T08:11:58.202Z,1010.70
2018-02-06T08:12:58.179Z,1010.71
2018-02-06T08:13:58.211Z,1010.71
2018-02-06T08:14:58.198Z,1010.70
2018-02-06T08:15:58.225Z,1010.73
2018-02-06T08:16:58.176Z,1010.74
2018-02-06T08:17:58.237Z,1010.76
2018-02-06T08:18:58.175Z,1010.71
2018-02-06T08:19:58.316Z,1010.78
2018-02-06T08:20:58.201Z,1010.74
2018-02-06T08:21:58.288Z,1010.74
2018-02-06T08:22:58.175Z,1010.66
2018-02-06T08:23:58.281Z,1010.69
2018-02-06T08:24:58.212Z,1010.70
2018-02-06T08:25:58.289Z,1010.69
2018-02-06T08:26:58.173Z,1010.70
2018-02-06T08:27:58.172Z,1010.67
2018-02-06T08:28:58.206Z,1010.63
2018-02-06T08:29:58.192Z,1010.60
2018-02-06T08:30:58.223Z,1010.61
2018-02-06T08:31:58.172Z,1010.58
2018-02-06T08:32:58.236Z,1010.58
2018-02-06T08:33:58.182Z,1010.62
2018-02-06T08:34:58.256Z,1010.61
2018-02-06T08:35:58.174Z,1010.55
2018-02-06T08:36:59.274Z,1010.57
2018-02-06T08:37:58.176Z,1010.56
2018-02-06T08:38:58.266Z,1010.55
2018-02-06T08:39:58.172Z,1010.49
2018-02-06T08:40:58.285Z,1010.48
2018-02-06T08:41:58.175Z,1010.55
2018-02-06T08:42:58.202Z,1010.47
2018-02-06T08:43:58.179Z,1010.44
2018-02-06T08:44:58.204Z,1010.50
2018-02-06T08:45:58.182Z,1010.42
2018-02-06T08:46:58.225Z,1010.43
2018-02-06T08:47:58.177Z,1010.50
2018-02-06T08:48:58.183Z,1010.44
2018-02-06T08:49:58.244Z,1010.37
2018-02-06T08:50:58.171Z,1010.44
2018-02-06T08:51:58.251Z,1010.39
2018-02-06T08:52:58.175Z,1010.34
2018-02-06T08:53:59.187Z,1010.38
2018-02-06T08:54:58.175Z,1010.39
2018-02-06T08:55:58.287Z,1010.40
2018-02-06T08:56:58.178Z,1010.36
2018-02-06T08:57:58.190Z,1010.35
2018-02-06T08:58:58.186Z,1010.37
2018-02-06T08:59:58.178Z,1010.32
2018-02-06T09:00:58.211Z,1010.34
2018-02-06T09:01:58.179Z,1010.34
2018-02-06T09:02:58.230Z,1010.28
2018-02-06T09:03:58.168Z,1010.30
2018-02-06T09:04:58.250Z,1010.33
2018-02-06T09:05:58.172Z,1010.29
2018-02-06T09:06:58.267Z,1010.33
2018-02-06T09:07:58.172Z,1010.28
2018-02-06T09:08:59.207Z,1010.27
2018-02-06T09:09:58.186Z,1010.23
2018-02-06T09:10:58.171Z,1010.24
2018-02-06T09:11:58.251Z,1010.20
2018-02-06T09:12:58.178Z,1010.17
2018-02-06T09:13:58.266Z,1010.16
2018-02-06T09:14:58.167Z,1010.15
2018-02-06T09:15:58.284Z,1010.16
2018-02-06T09:16:58.168Z,1010.14
2018-02-06T09:17:58.169Z,1010.14
2018-02-06T09:18:58.171Z,1010.17
2018-02-06T09:19:58.202Z,1010.20
2018-02-06T09:20:58.173Z,1010.19
2018-02-06T09:21:58.168Z,1010.26
2018-02-06T09:22:58.169Z,1010.19
2018-02-06T09:23:58.225Z,1010.15
2018-02-06T09:24:58.169Z,1010.19
2018-02-06T09:25:58.238Z,1010.19
2018-02-06T09:26:58.171Z,1010.22
2018-02-06T09:27:58.252Z,1010.24
2018-02-06T09:28:58.173Z,1010.23
2018-02-06T09:29:58.268Z,1010.19
2018-02-06T09:30:58.168Z,1010.12
2018-02-06T09:31:58.293Z,1010.17
2018-02-06T09:32:58.178Z,1010.16
2018-02-06T09:33:58.170Z,1010.16
2018-02-06T09:34:58.201Z,1010.14
2018-02-06T09:35:58.172Z,1010.13
2018-02-06T09:36:58.215Z,1010.14
2018-02-06T09:37:58.169Z,1010.10
2018-02-06T09:38:58.230Z,1010.13
2018-02-06T09:39:58.169Z,1010.07
2018-02-06T09:40:58.247Z,1010.09
2018-02-06T09:41:58.166Z,1010.13
2018-02-06T09:42:58.261Z,1010.08
2018-02-06T09:43:58.171Z,1010.03
2018-02-06T09:44:58.277Z,1010.00
2018-02-06T09:45:58.171Z,1010.05
2018-02-06T09:46:58.282Z,1010.07
2018-02-06T09:47:58.187Z,1010.03
2018-02-06T09:48:59.216Z,1010.04
2018-02-06T09:49:58.176Z,1010.03
2018-02-06T09:50:58.209Z,1010.00
2018-02-06T09:51:58.170Z,1010.03
2018-02-06T09:52:58.170Z,1009.96
2018-02-06T09:53:59.256Z,1010.01
2018-02-06T09:54:58.174Z,1009.97
2018-02-06T09:55:58.242Z,1010.01
2018-02-06T09:56:58.177Z,1009.93
2018-02-06T09:57:58.168Z,1009.93
2018-02-06T09:58:58.261Z,1009.96
2018-02-06T09:59:58.170Z,1010.01
2018-02-06T10:00:58.279Z,1009.94
2018-02-06T10:01:58.164Z,1009.92
2018-02-06T10:02:58.300Z,1009.97
2018-02-06T10:03:58.174Z,1009.91
2018-02-06T10:04:58.204Z,1009.95
2018-02-06T10:05:58.171Z,1009.97
2018-02-06T10:06:58.746Z,1009.96
2018-02-06T10:07:58.175Z,1009.96
2018-02-06T10:08:58.229Z,1009.94
2018-02-06T10:09:58.168Z,1009.92
2018-02-06T10:10:58.245Z,1009.92
2018-02-06T10:11:58.247Z,1009.91
2018-02-06T10:12:59.239Z,1009.93
2018-02-06T10:13:58.178Z,1009.86
2018-02-06T10:14:58.229Z,1009.91
2018-02-06T10:15:58.173Z,1009.88
2018-02-06T10:16:58.176Z,1009.89
2018-02-06T10:17:58.249Z,1009.91
2018-02-06T10:18:58.172Z,1009.91
2018-02-06T10:19:58.264Z,1009.84
2018-02-06T10:20:58.169Z,1009.86
2018-02-06T10:21:58.292Z,1009.83
2018-02-06T10:22:58.174Z,1009.82
2018-02-06T10:23:58.179Z,1009.80
2018-02-06T10:24:58.199Z,1009.77
2018-02-06T10:25:58.171Z,1009.77
2018-02-06T10:26:58.187Z,1009.79
2018-02-06T10:27:59.340Z,1009.81
2018-02-06T10:28:58.189Z,1009.81
2018-02-06T10:29:58.227Z,1009.78
2018-02-06T10:30:58.173Z,1009.73
2018-02-06T10:31:58.243Z,1009.72
2018-02-06T10:32:58.181Z,1009.70
2018-02-06T10:33:58.253Z,1009.73
2018-02-06T10:34:58.174Z,1009.72
2018-02-06T10:35:58.272Z,1009.70
2018-02-06T10:36:58.213Z,1009.65
2018-02-06T10:37:58.279Z,1009.58
2018-02-06T10:38:58.208Z,1009.58
2018-02-06T10:39:58.300Z,1009.59
2018-02-06T10:40:58.176Z,1009.60
2018-02-06T10:41:58.203Z,1009.62
2018-02-06T10:42:58.177Z,1009.67
2018-02-06T10:43:58.181Z,1009.59
2018-02-06T10:44:58.179Z,1009.59
2018-02-06T10:45:58.246Z,1009.58
2018-02-06T10:46:58.174Z,1009.55
2018-02-06T10:47:58.241Z,1009.61
2018-02-06T10:48:58.177Z,1009.55
2018-02-06T10:49:58.192Z,1009.53
2018-02-06T10:50:58.282Z,1009.49
2018-02-06T10:51:58.173Z,1009.47
2018-02-06T10:52:58.278Z,1009.46
2018-02-06T10:53:58.185Z,1009.51
2018-02-06T10:54:58.294Z,1009.52
2018-02-06T10:55:58.184Z,1009.55
2018-02-06T10:56:58.202Z,1009.54
2018-02-06T10:57:58.182Z,1009.55
2018-02-06T10:58:58.177Z,1009.58
2018-02-06T11:00:00.272Z,1009.61
2018-02-06T11:00:58.178Z,1009.57
2018-02-06T11:01:58.177Z,1009.62
2018-02-06T11:02:58.180Z,1009.57
2018-02-06T11:03:58.183Z,1009.56
2018-02-06T11:04:58.255Z,1009.61
2018-02-06T11:05:58.181Z,1009.63
2018-02-06T11:06:58.271Z,1009.63
2018-02-06T11:07:58.189Z,1009.68
2018-02-06T11:08:58.282Z,1009.62
2018-02-06T11:09:58.270Z,1009.64
2018-02-06T11:10:58.193Z,1009.64
2018-02-06T11:11:58.258Z,1009.69
2018-02-06T11:12:58.205Z,1009.62
2018-02-06T11:13:58.186Z,1009.57
2018-02-06T11:14:58.193Z,1009.60
2018-02-06T11:15:58.224Z,1009.54
2018-02-06T11:16:58.196Z,1009.50
2018-02-06T11:17:58.179Z,1009.50
2018-02-06T11:18:58.185Z,1009.49
2018-02-06T11:19:58.234Z,1009.51
2018-02-06T11:20:58.183Z,1009.51
2018-02-06T11:21:58.183Z,1009.52
2018-02-06T11:22:58.190Z,1009.50
2018-02-06T11:23:58.177Z,1009.55
2018-02-06T11:24:58.180Z,1009.51
2018-02-06T11:25:58.204Z,1009.49
2018-02-06T11:26:58.211Z,1009.41
2018-02-06T11:27:58.200Z,1009.48
2018-02-06T11:28:58.223Z,1009.45
2018-02-06T11:29:58.188Z,1009.46
2018-02-06T11:30:58.186Z,1009.45
2018-02-06T11:31:58.189Z,1009.42
2018-02-06T11:32:58.186Z,1009.41
2018-02-06T11:33:58.181Z,1009.36
2018-02-06T11:34:58.189Z,1009.36
2018-02-06T11:35:58.185Z,1009.38
2018-02-06T11:36:58.183Z,1009.32
2018-02-06T11:37:58.183Z,1009.33
2018-02-06T11:38:58.192Z,1009.27
2018-02-06T11:39:58.192Z,1009.32
2018-02-06T11:40:58.184Z,1009.27
2018-02-06T11:41:58.189Z,1009.29
2018-02-06T11:42:58.187Z,1009.27
2018-02-06T11:43:58.242Z,1009.20
2018-02-06T11:44:58.187Z,1009.19
2018-02-06T11:45:58.188Z,1009.17
2018-02-06T11:46:58.197Z,1009.09
2018-02-06T11:47:58.195Z,1009.09
2018-02-06T11:48:58.188Z,1009.08
2018-02-06T11:49:58.197Z,1009.08
2018-02-06T11:50:58.267Z,1009.09
2018-02-06T11:51:58.192Z,1009.09
2018-02-06T11:52:58.188Z,1009.10
2018-02-06T11:53:58.196Z,1009.11
2018-02-06T11:54:58.196Z,1009.07
2018-02-06T11:55:58.195Z,1009.10
2018-02-06T11:56:58.194Z,1009.03
2018-02-06T11:57:58.188Z,1009.05
2018-02-06T11:58:58.190Z,1008.98
2018-02-06T11:59:58.201Z,1009.00
2018-02-06T12:00:58.232Z,1009.02
2018-02-06T12:01:58.189Z,1008.99
2018-02-06T12:02:58.197Z,1009.01
2018-02-06T12:03:58.191Z,1008.99
2018-02-06T12:04:58.194Z,1008.98
2018-02-06T12:05:59.285Z,1008.94
2018-02-06T12:06:58.187Z,1008.96
2018-02-06T12:07:58.282Z,1008.96
2018-02-06T12:08:58.190Z,1008.88
2018-02-06T12:09:58.188Z,1008.90
2018-02-06T12:10:58.196Z,1008.91
2018-02-06T12:11:58.201Z,1008.84
2018-02-06T12:12:58.197Z,1008.79
2018-02-06T12:13:58.192Z,1008.79
2018-02-06T12:14:58.214Z,1008.78
2018-02-06T12:15:58.201Z,1008.77
2018-02-06T12:16:58.202Z,1008.78
2018-02-06T12:17:58.206Z,1008.78
2018-02-06T12:18:58.264Z,1008.72
2018-02-06T12:19:58.204Z,1008.68
2018-02-06T12:20:58.259Z,1008.67
2018-02-06T12:21:58.200Z,1008.70
2018-02-06T12:22:58.207Z,1008.68
2018-02-06T12:23:58.279Z,1008.66
2018-02-06T12:24:58.198Z,1008.65
2018-02-06T12:25:58.307Z,1008.61
2018-02-06T12:26:58.201Z,1008.61
2018-02-06T12:27:58.203Z,1008.58
2018-02-06T12:28:58.210Z,1008.62
2018-02-06T12:29:58.203Z,1008.52
2018-02-06T12:30:58.195Z,1008.53
2018-02-06T12:31:58.196Z,1008.45
2018-02-06T12:32:58.224Z,1008.42
2018-02-06T12:33:58.206Z,1008.40
2018-02-06T12:34:58.196Z,1008.37
2018-02-06T12:35:58.207Z,1008.39
2018-02-06T12:36:58.211Z,1008.44
2018-02-06T12:37:58.205Z,1008.37
2018-02-06T12:38:59.324Z,1008.42
2018-02-06T12:39:58.207Z,1008.47
2018-02-06T12:40:58.198Z,1008.48
2018-02-06T12:41:58.298Z,1008.48
2018-02-06T12:42:58.198Z,1008.46
2018-02-06T12:43:58.316Z,1008.42
2018-02-06T12:44:58.220Z,1008.48
2018-02-06T12:45:58.222Z,1008.41
2018-02-06T12:46:58.201Z,1008.41
2018-02-06T12:47:58.240Z,1008.35
2018-02-06T12:48:58.208Z,1008.37
2018-02-06T12:49:58.256Z,1008.35
2018-02-06T12:50:58.200Z,1008.33
2018-02-06T12:51:58.292Z,1008.35
2018-02-06T12:52:58.217Z,1008.42
2018-02-06T12:53:59.746Z,1008.33
2018-02-06T12:54:58.237Z,1008.22
2018-02-06T12:55:58.202Z,1008.31
2018-02-06T12:56:58.292Z,1008.25
2018-02-06T12:57:58.210Z,1008.23
2018-02-06T12:58:58.305Z,1008.26
2018-02-06T12:59:58.210Z,1008.27
2018-02-06T13:00:59.246Z,1008.25
2018-02-06T13:01:58.213Z,1008.23
2018-02-06T13:02:58.325Z,1008.22
2018-02-06T13:03:58.245Z,1008.26
2018-02-06T13:04:58.332Z,1008.22
2018-02-06T13:05:58.211Z,1008.21
2018-02-06T13:06:58.254Z,1008.19
2018-02-06T13:07:58.208Z,1008.25
2018-02-06T13:08:58.301Z,1008.24
2018-02-06T13:09:58.206Z,1008.23
2018-02-06T13:10:59.296Z,1008.21
2018-02-06T13:11:58.268Z,1008.20
2018-02-06T13:12:58.284Z,1008.26
2018-02-06T13:13:58.213Z,1008.18
2018-02-06T13:14:58.316Z,1008.19
2018-02-06T13:15:58.211Z,1008.17
2018-02-06T13:16:58.308Z,1008.20
2018-02-06T13:17:58.216Z,1008.17
2018-02-06T13:18:58.327Z,1008.17
2018-02-06T13:19:58.225Z,1008.18
2018-02-06T13:20:58.241Z,1008.19
2018-02-06T13:21:58.224Z,1008.16
2018-02-06T13:22:58.252Z,1008.11
2018-02-06T13:23:58.221Z,1008.04
2018-02-06T13:24:58.271Z,1007.98
2018-02-06T13:25:58.220Z,1007.87
2018-02-06T13:26:58.220Z,1007.92
2018-02-06T13:27:58.233Z,1007.86
2018-02-06T13:28:58.394Z,1007.84
2018-02-06T13:29:58.217Z,1007.82
2018-02-06T13:30:58.326Z,1007.80
2018-02-06T13:31:58.233Z,1007.88
2018-02-06T13:32:58.309Z,1007.84
2018-02-06T13:33:58.233Z,1007.84
2018-02-06T13:34:58.323Z,1007.80
2018-02-06T13:35:58.220Z,1007.78
2018-02-06T13:36:58.338Z,1007.74
2018-02-06T13:37:58.220Z,1007.75
2018-02-06T13:38:58.254Z,1007.69
2018-02-06T13:39:58.232Z,1007.64
2018-02-06T13:40:58.270Z,1007.71
2018-02-06T13:41:58.229Z,1007.66
2018-02-06T13:42:58.271Z,1007.72
2018-02-06T13:43:58.241Z,1007.73
2018-02-06T13:44:58.289Z,1007.77
2018-02-06T13:45:58.225Z,1007.78
2018-02-06T13:46:58.295Z,1007.71
2018-02-06T13:47:58.231Z,1007.69
2018-02-06T13:48:58.320Z,1007.67
2018-02-06T13:49:58.228Z,1007.63
2018-02-06T13:50:58.242Z,1007.68
2018-02-06T13:51:58.231Z,1007.66
2018-02-06T13:52:58.257Z,1007.70
2018-02-06T13:53:58.232Z,1007.70
2018-02-06T13:54:58.244Z,1007.68
2018-02-06T13:55:58.233Z,1007.70
2018-02-06T13:56:58.236Z,1007.65
2018-02-06T13:57:58.239Z,1007.68
2018-02-06T13:58:58.301Z,1007.62
2018-02-06T13:59:58.247Z,1007.61
2018-02-06T14:00:58.306Z,1007.61
2018-02-06T14:01:58.277Z,1007.64
2018-02-06T14:02:58.321Z,1007.71